Time;durP1;ratioP1;P1;durP2;ratioP2;P2;SDS_P1;SDS_P2;PMS_P1;PMS_P2;Temp;Humidity;BMP_temperature;BMP_pressure;BME280_temperature;BME280_humidity;BME280_pressure;Samples;Min_cycle;Max_cycle;Signal;HPM_P1;HPM_P2
2022/01/28 00:01:04;;;;;;;24.83;9.73;;;;;;;1.33;100.00;98886.13;4500866;31;20084;-70
2022/01/28 00:03:33;;;;;;;24.67;10.65;;;;;;;1.31;100.00;98903.44;4500664;31;20110;-70
2022/01/28 00:06:02;;;;;;;20.23;8.80;;;;;;;1.22;100.00;98894.38;4500616;31;20095;-70
2022/01/28 00:08:29;;;;;;;26.27;11.48;;;;;;;1.16;100.00;98907.59;4499173;31;20083;-71
2022/01/28 00:10:57;;;;;;;24.92;11.15;;;;;;;1.05;100.00;98891.81;4500644;31;20127;-70
2022/01/28 00:13:43;;;;;;;24.95;11.27;;;;;;;1.00;100.00;98888.59;4500380;31;20134;-70
2022/01/28 00:36:30;;;;;;;25.25;11.63;;;;;;;1.09;100.00;98872.69;4500561;31;20114;-70
2022/01/28 00:38:30;;;;;;;27.80;12.15;;;;;;;0.84;100.00;98922.03;4516164;31;20124;-70
2022/01/28 00:40:58;;;;;;;21.70;9.38;;;;;;;0.87;100.00;98920.13;4516141;31;20106;-70
2022/01/28 00:43:25;;;;;;;22.40;9.93;;;;;;;0.98;100.00;98918.78;4515795;31;20228;-70
2022/01/28 00:45:52;;;;;;;22.77;10.27;;;;;;;1.04;100.00;98921.09;4516157;31;20559;-70
2022/01/28 00:48:20;;;;;;;23.83;10.50;;;;;;;1.10;100.00;98914.81;4515701;31;20087;-70
2022/01/28 00:50:47;;;;;;;22.15;10.60;;;;;;;1.14;100.00;98926.66;4515758;31;20122;-70
2022/01/28 00:53:14;;;;;;;24.42;9.93;;;;;;;1.22;100.00;98915.03;4515906;31;20099;-70
2022/01/28 00:55:41;;;;;;;22.17;9.27;;;;;;;1.23;100.00;98914.13;4516058;31;20099;-70
2022/01/28 00:58:09;;;;;;;22.87;9.38;;;;;;;1.30;100.00;98901.75;4515827;31;20087;-70
2022/01/28 01:00:36;;;;;;;17.92;8.77;;;;;;;1.28;100.00;98906.16;4515492;31;20088;-70
2022/01/28 01:03:03;;;;;;;23.92;10.02;;;;;;;1.35;100.00;98896.37;4515614;31;20549;-70
2022/01/28 01:05:32;;;;;;;24.37;10.25;;;;;;;1.38;100.00;98896.22;4515746;31;20088;-70
2022/01/28 01:08:04;;;;;;;25.40;10.35;;;;;;;1.42;100.00;98900.31;4515639;31;20087;-70
2022/01/28 01:10:32;;;;;;;20.50;9.77;;;;;;;1.41;100.00;98896.09;4515626;31;20110;-70
2022/01/28 01:13:00;;;;;;;19.50;7.90;;;;;;;1.40;100.00;98896.97;4515536;31;20084;-70
2022/01/28 01:15:33;;;;;;;21.40;9.75;;;;;;;1.45;100.00;98897.56;4515281;31;20155;-71
2022/01/28 01:23:23;;;;;;;24.23;9.15;;;;;;;1.48;100.00;98900.00;4515533;31;20127;-70
2022/01/28 01:25:55;;;;;;;20.95;10.07;;;;;;;1.46;100.00;98898.44;4515480;31;20083;-70
2022/01/28 01:28:28;;;;;;;22.62;8.63;;;;;;;1.43;100.00;98899.41;4515413;31;20400;-70
2022/01/28 01:30:57;;;;;;;21.08;7.90;;;;;;;1.46;100.00;98890.69;4515195;31;20509;-71
2022/01/28 01:33:25;;;;;;;25.30;10.38;;;;;;;1.46;100.00;98896.69;4510316;31;20176;-70
2022/01/28 01:35:53;;;;;;;19.70;8.27;;;;;;;1.42;100.00;98893.44;4499354;31;20119;-70
2022/01/28 01:38:24;;;;;;;25.40;10.40;;;;;;;1.45;100.00;98889.00;4499280;31;20116;-70
2022/01/28 01:40:56;;;;;;;22.60;9.57;;;;;;;1.45;100.00;98879.50;4501670;31;20096;-70
2022/01/28 01:54:00;;;;;;;27.37;10.15;;;;;;;1.46;100.00;98882.94;4501748;31;20091;-70
2022/01/28 01:56:28;;;;;;;20.00;8.07;;;;;;;1.48;100.00;98878.53;4501730;31;20136;-70
2022/01/28 01:58:57;;;;;;;19.73;8.15;;;;;;;1.44;100.00;98877.84;4501889;31;20100;-70
2022/01/28 02:01:24;;;;;;;19.37;8.52;;;;;;;1.52;99.94;98873.13;4501520;31;20114;-70
2022/01/28 02:03:51;;;;;;;22.83;9.85;;;;;;;1.56;99.71;98871.22;4501381;31;20095;-70
2022/01/28 02:06:20;;;;;;;17.52;7.53;;;;;;;1.58;99.42;98867.66;4501597;31;20115;-71
2022/01/28 02:08:48;;;;;;;21.02;8.77;;;;;;;1.62;99.09;98880.41;4501406;31;20096;-70
2022/01/28 02:11:15;;;;;;;18.83;8.20;;;;;;;1.59;98.87;98869.34;4501420;31;20087;-71
2022/01/28 02:13:50;;;;;;;18.70;8.55;;;;;;;1.68;98.47;98872.34;4501436;31;20100;-70
2022/01/28 02:16:17;;;;;;;;;;;;;;;1.58;98.63;98867.66;4501663;31;20096;-71
2022/01/28 02:18:45;;;;;;;15.05;6.57;;;;;;;1.56;98.45;98872.06;4501701;31;19999;-70
2022/01/28 02:21:15;;;;;;;15.32;7.30;;;;;;;1.65;98.06;98872.50;4501297;31;20080;-70
2022/01/28 02:23:45;;;;;;;12.98;6.10;;;;;;;1.64;97.69;98873.44;4501284;31;20100;-70
2022/01/28 02:26:15;;;;;;;15.40;6.45;;;;;;;1.66;97.26;98856.94;4501427;31;20110;-71
2022/01/28 02:28:52;;;;;;;17.83;7.00;;;;;;;1.56;98.00;98866.06;4501513;31;20155;-70
2022/01/28 02:31:22;;;;;;;16.60;7.40;;;;;;;1.58;97.67;98869.41;4501339;31;20076;-70
2022/01/28 02:33:51;;;;;;;15.60;6.75;;;;;;;1.59;97.78;98878.84;4508360;31;20091;-70
2022/01/28 02:36:18;;;;;;;13.48;5.70;;;;;;;1.55;97.56;98885.88;4517233;31;20151;-71
2022/01/28 02:38:46;;;;;;;13.32;5.93;;;;;;;1.58;97.52;98870.25;4517154;31;20126;-71
2022/01/28 02:41:13;;;;;;;13.85;5.35;;;;;;;1.60;97.30;98857.25;4517192;31;20414;-71
2022/01/28 02:46:12;;;;;;;13.85;6.00;;;;;;;1.72;96.60;98859.19;4517149;31;20490;-70
2022/01/28 02:48:49;;;;;;;12.32;4.53;;;;;;;1.73;96.65;98854.88;4517565;31;20105;-70
2022/01/28 02:51:20;;;;;;;11.45;4.75;;;;;;;1.84;95.79;98862.91;4516861;31;20139;-70
2022/01/28 02:56:22;;;;;;;9.65;4.97;;;;;;;1.91;95.33;98851.34;4517028;31;20570;-70
2022/01/28 02:58:50;;;;;;;7.87;4.20;;;;;;;2.00;94.75;98854.34;4517204;31;20124;-70
2022/01/28 03:01:18;;;;;;;11.50;4.30;;;;;;;2.01;94.56;98864.59;4516942;31;20100;-71
2022/01/28 03:03:48;;;;;;;9.18;3.97;;;;;;;2.03;94.40;98873.13;4516857;31;20119;-71
2022/01/28 03:06:18;;;;;;;6.65;3.62;;;;;;;2.08;94.03;98880.63;4517040;31;20115;-71
2022/01/28 03:09:47;;;;;;;5.75;3.25;;;;;;;2.18;93.37;98878.38;4517015;31;20096;-70
2022/01/28 03:14:32;;;;;;;5.30;2.50;;;;;;;2.27;92.43;98864.97;4517340;31;20095;-70
2022/01/28 03:17:27;;;;;;;10.07;2.58;;;;;;;2.34;92.05;98868.88;4517338;31;20444;-71
2022/01/28 03:20:05;;;;;;;9.50;2.75;;;;;;;2.32;92.02;98865.56;4517102;31;20221;-71
2022/01/28 03:22:33;;;;;;;5.53;2.47;;;;;;;2.39;91.57;98868.62;4516840;31;20719;-71
2022/01/28 03:25:00;;;;;;;4.35;2.42;;;;;;;2.38;91.72;98874.75;4517048;31;20091;-71
2022/01/28 03:30:27;;;;;;;6.82;2.35;;;;;;;2.40;91.71;98893.59;4451186;32;20101;-71
2022/01/28 03:32:54;;;;;;;7.55;2.62;;;;;;;2.44;91.52;98880.41;4450170;32;20537;-70
2022/01/28 03:35:30;;;;;;;4.57;1.77;;;;;;;2.45;91.48;98865.72;4435964;32;20132;-71
2022/01/28 03:38:01;;;;;;;4.28;2.35;;;;;;;2.47;91.42;98882.00;4436324;32;20497;-70
2022/01/28 03:40:33;;;;;;;3.80;2.17;;;;;;;2.48;91.29;98884.50;4436012;32;20666;-70
2022/01/28 03:43:00;;;;;;;3.22;1.70;;;;;;;2.48;91.26;98886.25;4435959;32;20110;-70
2022/01/28 03:45:28;;;;;;;4.00;2.28;;;;;;;2.52;90.77;98886.94;4435975;32;20175;-70
2022/01/28 03:47:56;;;;;;;3.45;2.10;;;;;;;2.57;90.25;98890.91;4436174;32;20101;-70
2022/01/28 03:50:23;;;;;;;4.18;2.03;;;;;;;2.56;90.19;98896.16;4435913;32;20182;-70
2022/01/28 03:52:50;;;;;;;2.55;1.70;;;;;;;2.55;90.22;98897.94;4423142;32;20214;-70
2022/01/28 03:55:17;;;;;;;2.40;1.75;;;;;;;2.62;89.83;98901.84;4435950;32;20144;-71
2022/01/28 03:57:44;;;;;;;3.20;1.50;;;;;;;2.63;89.75;98900.09;4435842;32;20161;-71
2022/01/28 04:00:12;;;;;;;3.78;2.08;;;;;;;2.64;89.60;98902.59;4435736;32;20105;-71
2022/01/28 04:02:44;;;;;;;3.75;2.00;;;;;;;2.70;89.37;98916.13;4434832;32;20462;-70
2022/01/28 04:13:29;;;;;;;6.15;1.90;;;;;;;2.72;87.84;98909.09;4500760;31;20083;-71
2022/01/28 04:18:26;;;;;;;4.47;1.67;;;;;;;2.83;86.38;98919.69;4500616;31;20088;-71
2022/01/28 04:20:53;;;;;;;2.95;1.80;;;;;;;2.85;86.46;98910.09;4500371;31;20087;-71
2022/01/28 04:23:20;;;;;;;2.75;1.58;;;;;;;2.85;86.40;98920.47;4500282;31;20385;-71
2022/01/28 04:25:47;;;;;;;5.03;2.28;;;;;;;2.79;85.95;98915.62;4500510;31;20104;-71
2022/01/28 04:28:15;;;;;;;2.37;1.50;;;;;;;2.76;85.85;98898.50;4500224;31;20413;-71
2022/01/28 04:30:42;;;;;;;2.90;1.58;;;;;;;2.68;86.13;98905.88;4500330;31;20092;-71
2022/01/28 04:33:10;;;;;;;3.80;1.85;;;;;;;2.59;86.29;98903.75;4502958;31;20455;-71
2022/01/28 04:35:38;;;;;;;3.05;1.70;;;;;;;2.49;86.55;98913.78;4516034;31;20122;-71
2022/01/28 04:40:38;;;;;;;3.28;1.58;;;;;;;2.36;86.89;98894.66;4516252;31;20091;-70
2022/01/28 05:27:23;;;;;;;2.10;1.48;;;;;;;1.94;87.92;98946.78;4517144;31;20865;-71
2022/01/28 05:29:50;;;;;;;3.47;1.62;;;;;;;1.87;88.15;98942.00;4517857;31;20155;-71
2022/01/28 05:32:17;;;;;;;3.22;1.62;;;;;;;1.82;88.41;98938.78;4511664;31;20122;-71
2022/01/28 05:34:45;;;;;;;2.30;1.50;;;;;;;1.78;88.43;98933.78;4505939;31;20112;-71
2022/01/28 05:37:12;;;;;;;3.67;1.27;;;;;;;1.81;88.02;98940.53;4506994;31;20182;-71
2022/01/28 05:39:39;;;;;;;2.80;1.77;;;;;;;1.87;87.32;98935.06;4506588;31;20501;-71
2022/01/28 05:42:07;;;;;;;2.25;1.17;;;;;;;1.86;87.42;98928.25;4508008;31;20460;-71
2022/01/28 05:44:34;;;;;;;2.08;1.20;;;;;;;1.87;87.42;98923.91;4494625;31;20492;-71
2022/01/28 05:47:03;;;;;;;4.37;1.25;;;;;;;1.83;87.77;98920.63;4506537;31;20715;-71
2022/01/28 05:49:31;;;;;;;1.80;1.20;;;;;;;1.88;87.68;98913.50;4508641;31;20183;-71
2022/01/28 05:51:59;;;;;;;2.00;1.40;;;;;;;1.88;87.87;98908.34;4508025;31;20569;-71
2022/01/28 05:54:26;;;;;;;1.58;1.25;;;;;;;1.97;87.50;98906.19;4507354;31;20099;-71
2022/01/28 05:56:53;;;;;;;2.35;0.90;;;;;;;1.98;87.48;98897.53;4508015;31;20131;-71
2022/01/28 05:59:20;;;;;;;1.73;1.05;;;;;;;2.08;87.00;98889.19;4503373;31;20088;-71
2022/01/28 06:01:47;;;;;;;3.85;1.87;;;;;;;2.15;86.74;98899.22;4493589;31;20470;-71
2022/01/28 06:04:16;;;;;;;1.90;1.08;;;;;;;2.19;86.28;98917.06;4510958;31;20099;-71
2022/01/28 06:06:43;;;;;;;2.85;1.20;;;;;;;2.24;86.36;98919.41;4514163;31;20100;-71
2022/01/28 06:09:10;;;;;;;3.30;1.33;;;;;;;2.28;86.07;98923.50;4515827;31;20096;-71
2022/01/28 06:11:38;;;;;;;1.67;1.30;;;;;;;2.31;85.82;98923.34;4513797;31;20472;-71
2022/01/28 06:14:09;;;;;;;3.28;1.02;;;;;;;2.33;85.80;98923.25;4507610;31;20109;-71
2022/01/28 06:16:36;;;;;;;1.50;1.20;;;;;;;2.31;85.74;98925.94;4509437;31;20142;-71
2022/01/28 06:19:03;;;;;;;2.62;1.10;;;;;;;2.33;85.79;98943.94;4515150;31;20112;-71
2022/01/28 06:21:30;;;;;;;1.62;1.08;;;;;;;2.33;85.81;98946.53;4514457;31;20130;-71
2022/01/28 06:23:57;;;;;;;4.68;1.55;;;;;;;2.28;85.78;98939.84;4513735;31;20121;-72
2022/01/28 06:26:25;;;;;;;1.92;1.12;;;;;;;2.31;85.51;98954.38;4502350;31;20103;-71
2022/01/28 06:28:53;;;;;;;2.70;1.45;;;;;;;2.31;85.48;98956.94;4515931;31;20192;-71
2022/01/28 06:31:20;;;;;;;1.60;1.23;;;;;;;2.26;85.77;98966.72;4508622;31;20104;-71
2022/01/28 06:33:48;;;;;;;1.70;1.23;;;;;;;2.21;85.94;98961.78;4512330;31;20448;-71
2022/01/28 06:36:16;;;;;;;1.33;0.80;;;;;;;2.28;85.36;98967.44;4516002;31;20123;-71
2022/01/28 06:38:43;;;;;;;4.47;1.50;;;;;;;2.32;85.11;98971.56;4516060;31;20523;-71
2022/01/28 06:41:10;;;;;;;2.65;1.60;;;;;;;2.29;85.08;98964.78;4511320;31;20444;-71
2022/01/28 06:43:39;;;;;;;2.08;1.20;;;;;;;2.26;84.96;98954.59;4510473;31;20083;-71
2022/01/28 06:46:06;;;;;;;3.70;1.27;;;;;;;2.29;84.75;98964.78;4516333;31;20107;-71
2022/01/28 06:48:34;;;;;;;3.08;1.20;;;;;;;2.29;84.66;98951.84;4492538;31;20112;-71
2022/01/28 06:51:01;;;;;;;3.15;1.48;;;;;;;2.34;84.31;98961.12;4497217;31;20104;-71
2022/01/28 06:53:28;;;;;;;3.45;1.08;;;;;;;2.31;84.26;98957.78;4505536;31;20724;-71
2022/01/28 06:55:55;;;;;;;2.10;1.25;;;;;;;2.31;83.96;98970.69;4516527;31;20145;-71
2022/01/28 06:58:23;;;;;;;1.58;1.20;;;;;;;2.40;83.30;98968.56;4516444;31;20100;-71
2022/01/28 07:00:50;;;;;;;1.80;1.05;;;;;;;2.35;83.09;98965.37;4516152;31;20159;-70
2022/01/28 07:03:18;;;;;;;3.65;1.30;;;;;;;2.32;83.23;98979.31;4516173;31;20152;-71
2022/01/28 07:05:46;;;;;;;1.30;0.88;;;;;;;2.34;83.05;98992.16;4516771;31;20146;-71
2022/01/28 07:08:13;;;;;;;1.25;0.75;;;;;;;2.45;82.16;98992.41;4516658;31;20126;-71
2022/01/28 07:10:40;;;;;;;2.10;1.20;;;;;;;2.56;81.62;99007.38;4516323;31;20143;-71
2022/01/28 07:13:07;;;;;;;1.62;1.20;;;;;;;2.54;81.54;99002.28;4516283;31;20126;-71
2022/01/28 07:15:34;;;;;;;2.62;1.52;;;;;;;2.57;81.96;99011.63;4514798;31;20095;-71
2022/01/28 07:18:03;;;;;;;2.05;1.17;;;;;;;2.60;81.33;99027.00;4516461;31;20133;-71
2022/01/28 07:20:31;;;;;;;1.55;0.65;;;;;;;2.76;80.43;99006.34;4515736;31;20099;-71
2022/01/28 07:22:58;;;;;;;1.52;1.12;;;;;;;2.84;79.55;99028.28;4511587;31;20091;-70
2022/01/28 07:25:26;;;;;;;0.60;0.45;;;;;;;2.97;77.95;99028.47;4515051;31;20155;-71
2022/01/28 07:27:53;;;;;;;1.65;0.98;;;;;;;3.09;76.51;99019.19;4512983;31;20175;-71
2022/01/28 07:30:20;;;;;;;1.90;0.88;;;;;;;3.10;77.08;99004.50;4514727;31;20140;-71
2022/01/28 07:32:50;;;;;;;1.12;0.90;;;;;;;3.14;76.77;99004.25;4515252;31;20175;-71
2022/01/28 07:35:17;;;;;;;1.25;0.85;;;;;;;3.17;76.78;99004.06;4514986;31;20867;-71
2022/01/28 07:37:45;;;;;;;1.05;0.80;;;;;;;3.16;77.02;99015.38;4512511;31;20144;-71
2022/01/28 07:40:13;;;;;;;2.28;1.00;;;;;;;3.20;76.16;99019.44;4515702;31;20398;-71
2022/01/28 07:42:41;;;;;;;1.80;1.00;;;;;;;3.31;75.75;99011.06;4515925;31;20122;-70
2022/01/28 07:45:09;;;;;;;1.58;0.82;;;;;;;3.33;75.28;99029.97;4515676;31;20441;-71
2022/01/28 07:47:37;;;;;;;0.90;0.80;;;;;;;3.32;74.36;99024.87;4516381;31;20107;-71
2022/01/28 07:50:05;;;;;;;1.30;0.68;;;;;;;3.34;74.27;99041.97;4516137;31;20484;-71
2022/01/28 07:52:32;;;;;;;1.05;0.70;;;;;;;3.47;72.85;99038.72;4515511;31;20115;-71
2022/01/28 07:55:01;;;;;;;1.10;0.80;;;;;;;3.69;71.44;99057.34;4508707;31;20099;-71
2022/01/28 07:57:30;;;;;;;1.17;0.55;;;;;;;3.70;70.79;99063.34;4509696;31;20516;-71
2022/01/28 07:59:58;;;;;;;4.53;0.80;;;;;;;3.60;70.94;99068.19;4514680;31;20100;-71
2022/01/28 08:02:27;;;;;;;0.60;0.52;;;;;;;3.56;70.76;99056.34;4508034;31;20103;-71
2022/01/28 08:04:55;;;;;;;0.95;0.65;;;;;;;3.63;70.55;99052.47;4515097;31;20126;-71
2022/01/28 08:07:22;;;;;;;0.95;0.43;;;;;;;3.66;70.63;99067.00;4515652;31;20092;-71
2022/01/28 08:09:50;;;;;;;0.93;0.60;;;;;;;3.65;69.22;99048.06;4513621;31;20534;-71
2022/01/28 08:12:17;;;;;;;1.00;0.60;;;;;;;3.67;69.62;99059.16;4515057;31;21810;-71
2022/01/28 08:14:44;;;;;;;1.98;0.70;;;;;;;3.69;69.21;99041.78;4513280;31;20170;-71
2022/01/28 08:17:11;;;;;;;1.35;0.52;;;;;;;3.81;69.10;99042.81;4515509;31;20095;-71
2022/01/28 08:19:39;;;;;;;0.88;0.43;;;;;;;3.84;68.43;99040.06;4515051;31;20159;-70
2022/01/28 08:22:06;;;;;;;2.20;0.70;;;;;;;3.83;67.05;99042.72;4515684;31;20095;-71
2022/01/28 08:24:33;;;;;;;4.45;0.50;;;;;;;3.92;67.51;99039.63;4514767;31;20159;-70
2022/01/28 08:27:01;;;;;;;1.42;0.60;;;;;;;3.97;66.59;99039.38;4515135;31;20167;-71
2022/01/28 08:29:28;;;;;;;0.85;0.47;;;;;;;4.09;65.86;99034.28;4513346;31;20134;-71
2022/01/28 08:31:55;;;;;;;1.00;0.43;;;;;;;4.19;64.69;99044.12;4514923;31;20117;-70
2022/01/28 08:34:23;;;;;;;0.32;0.25;;;;;;;4.15;64.23;99037.44;4512768;31;20099;-70
2022/01/28 08:36:50;;;;;;;1.50;0.55;;;;;;;4.13;64.14;99058.28;4513156;31;20092;-70
2022/01/28 08:39:17;;;;;;;1.37;0.60;;;;;;;4.26;64.14;99048.03;4514929;31;20087;-70
2022/01/28 08:41:44;;;;;;;1.15;0.40;;;;;;;4.36;63.10;99062.13;4514130;31;20119;-71
2022/01/28 08:44:15;;;;;;;1.58;0.28;;;;;;;4.36;61.58;99058.69;4512917;31;20114;-71
2022/01/28 08:46:43;;;;;;;1.55;0.45;;;;;;;4.42;60.43;99050.53;4513816;31;20572;-71
2022/01/28 08:49:10;;;;;;;0.77;0.20;;;;;;;4.44;60.62;99035.75;4506714;31;20187;-71
2022/01/28 08:51:38;;;;;;;0.93;0.40;;;;;;;4.54;59.21;99023.03;4517160;31;20168;-71
2022/01/28 08:54:05;;;;;;;0.43;0.22;;;;;;;4.56;60.27;99052.34;4517472;31;20156;-71
2022/01/28 08:56:33;;;;;;;2.00;0.40;;;;;;;4.50;60.40;99047.53;4517679;31;20088;-71
2022/01/28 08:59:09;;;;;;;0.40;0.40;;;;;;;4.33;60.54;99051.94;4517488;31;20113;-70
2022/01/28 09:01:37;;;;;;;3.15;0.45;;;;;;;4.47;61.61;99073.63;4517082;31;20096;-71
2022/01/28 09:04:04;;;;;;;0.30;0.10;;;;;;;4.51;61.32;99062.13;4517235;31;20365;-71
2022/01/28 09:06:31;;;;;;;2.90;0.88;;;;;;;4.57;62.03;99059.19;4517228;31;20114;-71
2022/01/28 09:09:01;;;;;;;2.47;0.55;;;;;;;4.87;63.02;99058.25;4517269;31;20104;-71
2022/01/28 09:11:32;;;;;;;1.08;0.55;;;;;;;4.82;62.79;99057.72;4512748;31;20096;-71
2022/01/28 09:14:00;;;;;;;0.65;0.32;;;;;;;4.69;63.58;99055.84;4514027;31;20098;-70
2022/01/28 09:16:27;;;;;;;1.80;0.30;;;;;;;4.62;63.63;99049.38;4516559;31;20229;-71
2022/01/28 09:18:55;;;;;;;0.20;0.20;;;;;;;4.79;64.40;99059.56;4512816;31;20465;-71
2022/01/28 09:21:22;;;;;;;1.52;0.32;;;;;;;5.06;63.66;99064.00;4506877;31;20162;-71
2022/01/28 09:23:49;;;;;;;1.12;0.60;;;;;;;5.22;63.03;99089.00;4508130;31;20100;-70
2022/01/28 09:26:16;;;;;;;2.60;0.40;;;;;;;5.03;63.17;99081.53;4513702;31;20118;-70
2022/01/28 09:28:44;;;;;;;0.75;0.30;;;;;;;4.84;62.60;99061.03;4517172;31;20551;-70
2022/01/28 09:31:11;;;;;;;1.55;0.68;;;;;;;4.71;61.99;99054.00;4514091;31;20091;-71
2022/01/28 09:33:38;;;;;;;0.57;0.40;;;;;;;4.80;62.70;99063.00;4511315;31;20107;-71
2022/01/28 09:36:06;;;;;;;0.35;0.30;;;;;;;5.00;60.98;99072.16;4508285;31;20111;-70
2022/01/28 09:38:34;;;;;;;1.52;0.28;;;;;;;5.14;60.53;99095.50;4490113;31;20489;-70
2022/01/28 09:41:03;;;;;;;0.93;0.40;;;;;;;5.10;59.18;99088.84;4514995;31;20114;-71
2022/01/28 09:43:31;;;;;;;0.30;0.17;;;;;;;5.08;58.99;99101.06;4516548;31;20107;-71
2022/01/28 09:45:58;;;;;;;1.30;0.20;;;;;;;4.82;59.58;99097.47;4516723;31;20122;-70
2022/01/28 09:48:25;;;;;;;4.12;0.30;;;;;;;4.71;59.13;99099.88;4511986;31;20133;-71
2022/01/28 09:50:53;;;;;;;0.45;0.32;;;;;;;4.73;60.90;99103.22;4515368;31;20778;-71
2022/01/28 09:53:20;;;;;;;4.53;0.35;;;;;;;4.86;59.87;99074.75;4516174;31;20465;-71
2022/01/28 09:55:50;;;;;;;3.20;0.40;;;;;;;4.85;58.52;99079.13;4514150;31;20167;-71
2022/01/28 09:58:18;;;;;;;0.57;0.30;;;;;;;4.97;58.79;99088.75;4512017;31;20111;-71
2022/01/28 10:00:45;;;;;;;2.83;0.50;;;;;;;5.03;58.67;99071.16;4514884;31;20098;-71
2022/01/28 10:03:15;;;;;;;2.75;0.70;;;;;;;5.02;56.20;99085.03;4516017;31;20550;-72
2022/01/28 10:05:44;;;;;;;1.85;0.55;;;;;;;5.29;56.84;99095.50;4516169;31;20100;-71
2022/01/28 10:08:17;;;;;;;1.25;0.30;;;;;;;5.48;54.04;99092.56;4516113;31;20113;-71
2022/01/28 10:10:47;;;;;;;0.30;0.28;;;;;;;5.46;54.02;99091.84;4510154;31;20425;-71
2022/01/28 10:13:33;;;;;;;0.90;0.45;;;;;;;5.67;54.14;99092.25;4516974;31;20091;-72
2022/01/28 10:16:07;;;;;;;0.93;0.30;;;;;;;5.98;54.22;99072.94;4512730;31;20096;-72
2022/01/28 10:18:38;;;;;;;1.42;0.52;;;;;;;5.73;52.58;99086.66;4514952;31;20118;-71
2022/01/28 10:21:28;;;;;;;0.50;0.32;;;;;;;5.66;51.98;99075.81;4500999;31;20112;-72
2022/01/28 10:24:01;;;;;;;0.68;0.37;;;;;;;5.83;52.82;99072.13;4501428;31;20111;-71
2022/01/28 10:26:39;;;;;;;0.73;0.35;;;;;;;5.85;51.93;99069.44;4504922;31;20129;-72
2022/01/28 10:29:18;;;;;;;0.50;0.30;;;;;;;6.29;51.91;99057.06;4514719;31;20078;-72
2022/01/28 10:31:47;;;;;;;0.37;0.30;;;;;;;6.23;51.35;99068.69;4516141;31;20475;-73
2022/01/28 10:34:25;;;;;;;1.40;0.50;;;;;;;6.02;50.84;99078.75;4515996;31;20095;-72
2022/01/28 10:37:20;;;;;;;3.72;0.40;;;;;;;6.01;51.22;99053.66;4515981;31;20117;-72
2022/01/28 10:39:53;;;;;;;3.35;0.45;;;;;;;6.06;52.06;99082.81;4515237;31;20598;-71
2022/01/28 10:42:24;;;;;;;5.20;0.98;;;;;;;5.95;52.51;99038.44;4516222;31;20268;-71
2022/01/28 10:44:55;;;;;;;1.27;0.30;;;;;;;6.01;52.60;99048.47;4513182;31;20123;-70
2022/01/28 10:47:33;;;;;;;1.65;0.20;;;;;;;6.04;52.83;99063.87;4516175;31;20108;-70
2022/01/28 10:50:01;;;;;;;0.40;0.40;;;;;;;6.01;52.66;99079.69;4516299;31;20501;-70
2022/01/28 10:52:33;;;;;;;15.40;0.57;;;;;;;5.91;53.80;99052.59;4516208;31;20095;-70
2022/01/28 10:55:01;;;;;;;1.90;0.43;;;;;;;5.81;54.81;99052.34;4516115;31;20501;-70
2022/01/28 10:57:30;;;;;;;0.70;0.30;;;;;;;5.90;54.84;99048.31;4508208;31;20103;-70
2022/01/28 10:59:58;;;;;;;0.62;0.32;;;;;;;5.72;55.16;99069.38;4516336;31;20087;-70
2022/01/28 11:02:26;;;;;;;4.35;0.57;;;;;;;5.62;55.41;99042.34;4515751;31;20151;-70
2022/01/28 11:04:55;;;;;;;3.33;0.77;;;;;;;5.81;55.88;99057.56;4511922;31;20103;-70
2022/01/28 11:07:23;;;;;;;1.48;0.50;;;;;;;5.85;54.63;99077.22;4516302;31;20175;-70
2022/01/28 11:09:50;;;;;;;2.62;0.43;;;;;;;5.72;55.47;99056.37;4515897;31;20460;-70
2022/01/28 11:12:17;;;;;;;1.12;0.37;;;;;;;5.98;55.14;99061.69;4511395;31;20099;-70
2022/01/28 11:14:44;;;;;;;4.97;0.55;;;;;;;6.06;55.44;99062.03;4515974;31;20498;-70
2022/01/28 11:17:16;;;;;;;1.45;0.43;;;;;;;5.80;55.75;99069.72;4515673;31;20119;-70
2022/01/28 11:19:45;;;;;;;1.85;0.45;;;;;;;5.59;57.21;99063.31;4514892;31;20568;-70
2022/01/28 11:22:34;;;;;;;2.85;0.70;;;;;;;5.22;58.03;99070.81;4516554;31;20427;-70
2022/01/28 11:25:09;;;;;;;2.28;0.55;;;;;;;5.21;58.61;99095.13;4511252;31;20114;-70
2022/01/28 11:27:38;;;;;;;0.55;0.35;;;;;;;5.23;59.52;99103.66;4501295;31;20154;-70
2022/01/28 11:30:17;;;;;;;2.10;0.40;;;;;;;5.31;59.21;99097.06;4495795;31;20456;-70
2022/01/28 11:33:05;;;;;;;1.55;0.62;;;;;;;5.27;58.58;99110.34;4512359;31;20114;-70
2022/01/28 11:35:41;;;;;;;1.48;0.70;;;;;;;5.20;59.54;99099.50;4514672;31;20394;-70
2022/01/28 11:38:26;;;;;;;2.83;0.37;;;;;;;5.01;59.79;99104.13;4500369;31;20107;-70
2022/01/28 11:41:01;;;;;;;4.45;0.85;;;;;;;4.83;60.98;99113.88;4516724;31;20091;-70
2022/01/28 11:43:31;;;;;;;0.32;0.28;;;;;;;4.80;61.85;99128.72;4516396;31;20072;-70
2022/01/28 11:46:10;;;;;;;0.57;0.20;;;;;;;4.59;61.04;99130.00;4515834;31;20091;-70
2022/01/28 11:48:54;;;;;;;1.48;0.20;;;;;;;4.51;62.58;99122.66;4511636;31;20114;-70
2022/01/28 11:51:24;;;;;;;0.70;0.43;;;;;;;4.43;62.11;99117.06;4513910;31;20122;-70
2022/01/28 11:53:59;;;;;;;2.25;0.43;;;;;;;4.49;62.06;99114.12;4509924;31;20095;-71
2022/01/28 11:56:27;;;;;;;1.52;0.40;;;;;;;4.42;62.45;99098.09;4510649;31;20095;-70
2022/01/28 11:59:00;;;;;;;0.82;0.40;;;;;;;4.39;62.84;99121.62;4515212;31;20114;-70
2022/01/28 12:01:39;;;;;;;1.27;0.50;;;;;;;4.37;63.06;99110.47;4498536;31;20534;-70
2022/01/28 12:04:30;;;;;;;1.25;0.50;;;;;;;4.36;63.44;99128.72;4511470;31;20096;-70
2022/01/28 12:07:05;;;;;;;5.25;0.45;;;;;;;4.39;63.49;99107.78;4505126;31;20111;-70
2022/01/28 12:09:34;;;;;;;1.15;0.40;;;;;;;4.42;62.84;99092.91;4515617;31;20122;-71
2022/01/28 12:12:03;;;;;;;2.67;0.60;;;;;;;4.48;62.71;99102.09;4508770;31;20489;-70
2022/01/28 12:14:49;;;;;;;1.17;0.55;;;;;;;4.53;61.88;99109.59;4507512;31;20103;-70
2022/01/28 12:17:33;;;;;;;1.30;0.30;;;;;;;4.55;61.64;99107.75;4508938;31;20121;-70
2022/01/28 12:20:22;;;;;;;1.55;0.65;;;;;;;4.49;61.21;99115.88;4514367;31;20778;-70
2022/01/28 12:23:11;;;;;;;1.75;0.57;;;;;;;4.49;61.16;99115.88;4514933;31;20088;-71
2022/01/28 12:25:41;;;;;;;0.40;0.20;;;;;;;4.41;60.86;99129.31;4514723;31;20083;-70
2022/01/28 12:28:20;;;;;;;2.15;0.55;;;;;;;4.39;60.71;99132.00;4514637;31;20095;-71
2022/01/28 12:30:48;;;;;;;4.72;0.80;;;;;;;4.40;60.74;99115.47;4508926;31;20126;-71
2022/01/28 12:33:22;;;;;;;2.75;1.00;;;;;;;4.36;60.15;99119.19;4514563;31;20091;-72
2022/01/28 12:35:52;;;;;;;0.85;0.43;;;;;;;4.38;60.74;99122.53;4514457;31;20109;-71
2022/01/28 12:38:25;;;;;;;1.30;0.60;;;;;;;4.37;60.47;99122.63;4501277;31;20119;-71
2022/01/28 12:40:54;;;;;;;0.68;0.47;;;;;;;4.31;59.65;99131.59;4515442;31;20505;-71
2022/01/28 12:43:25;;;;;;;0.40;0.30;;;;;;;4.28;60.36;99128.34;4516041;31;20114;-71
2022/01/28 12:45:59;;;;;;;4.50;0.57;;;;;;;4.25;60.12;99135.38;4516006;31;20506;-71
2022/01/28 12:48:27;;;;;;;2.20;0.40;;;;;;;4.30;61.04;99144.62;4515978;31;20151;-71
2022/01/28 12:50:55;;;;;;;4.05;0.60;;;;;;;4.25;60.07;99155.28;4515604;31;20087;-71
2022/01/28 12:53:41;;;;;;;3.95;0.60;;;;;;;4.22;60.11;99147.69;4510716;31;20127;-71
2022/01/28 12:56:10;;;;;;;1.12;0.35;;;;;;;4.17;60.13;99149.72;4505884;31;20080;-71
2022/01/28 12:58:40;;;;;;;1.00;0.35;;;;;;;4.15;60.15;99148.94;4499583;31;20107;-71
2022/01/28 13:01:11;;;;;;;0.50;0.32;;;;;;;4.13;60.69;99166.34;4505809;31;20075;-70
2022/01/28 13:03:50;;;;;;;0.45;0.25;;;;;;;4.09;60.86;99153.56;4509760;31;20100;-71
2022/01/28 13:06:27;;;;;;;1.87;0.57;;;;;;;4.07;61.09;99147.63;4504620;31;20402;-71
2022/01/28 13:08:56;;;;;;;2.20;0.60;;;;;;;4.07;61.03;99152.81;4507951;31;20095;-71
2022/01/28 13:11:25;;;;;;;1.35;0.52;;;;;;;4.16;60.97;99148.84;4509995;31;20536;-71
2022/01/28 13:13:54;;;;;;;2.87;0.40;;;;;;;4.14;61.18;99150.72;4504672;31;20586;-71
2022/01/28 13:16:33;;;;;;;3.78;0.70;;;;;;;4.12;61.20;99157.75;4510118;31;20175;-71
2022/01/28 13:19:02;;;;;;;4.15;0.35;;;;;;;4.11;61.15;99157.84;4515200;31;20149;-70
2022/01/28 13:21:31;;;;;;;2.37;0.70;;;;;;;4.15;61.38;99146.34;4514867;31;20155;-70
2022/01/28 13:24:04;;;;;;;2.17;0.55;;;;;;;4.17;61.31;99139.34;4514544;31;20110;-70
2022/01/28 13:26:32;;;;;;;3.53;0.50;;;;;;;4.28;60.20;99151.69;4514789;31;20084;-71
2022/01/28 13:29:09;;;;;;;0.88;0.40;;;;;;;4.29;59.87;99164.56;4488306;31;20104;-71
2022/01/28 13:31:37;;;;;;;1.42;0.30;;;;;;;4.18;60.12;99135.78;4503526;31;20148;-71
2022/01/28 13:34:06;;;;;;;8.40;0.70;;;;;;;4.22;60.63;99143.34;4507386;31;20460;-70
2022/01/28 13:36:51;;;;;;;1.05;0.40;;;;;;;4.20;60.94;99139.16;4515921;31;20092;-71